HTDA/DAR METAR and TAF weather

Enter ICAO airport designator
Station Type Date Time Source
HTDA METAR 2022/01/28 23:00 UTC NOAA

HTDA 282300Z 05009KT 9999 SCT014 27/23 Q1010 NOSIG


Station Type Date Time Source
HTDA Decoded METAR 2022/01/28 23:00 UTC NOAA

Dar Es Salaam Airport, Tanzania (HTDA) 06-52S 039-12E 55M
Jan 28, 2022 - 06:00 PM EST / 2022.01.28 2300 UTC
Wind: from the NE (050 degrees) at 10 MPH (9 KT):0
Visibility: greater than 7 mile(s):0
Sky conditions: partly cloudy
Temperature: 80 F (27 C)
Dew Point: 73 F (23 C)
Relative Humidity: 78%
Pressure (altimeter): 29.83 in. Hg (1010 hPa)
ob: HTDA 282300Z 05009KT 9999 SCT014 27/23 Q1010 NOSIG
cycle: 23

Station Type Date Time Source
HTDA TAF 2022/01/28 18:39 UTC NOAA

TAF TAF HTDA 281700Z 2818/2924 06010KT 9999 SCT015
TEMPO 2900/2905 TSRA BKN015 FEW016CB

Example: see airport list